Terminal Aerodrome Forecast
Issued by NWS

Home | Current Version | Previous Version | Text Only | Print | Product List | Glossary On
Versions: 1 2 3 4 5 6 7 8 9 10 11 12 13 14 15 16 17 18 19 20 21 22 23 24 25 26
000
FTAK31 PANC 172116 AAA
TAFATK
TAF AMD
PATK 172116Z 1721/1818 04004KT P6SM SCT045
      TEMPO 1721/1724 BKN025
     FM180000 02006KT P6SM SKC
     FM180600 02010G15KT P6SM SKC=

USA.gov is the U.S. government's official web portal to all federal, state and local government web resources and services.